createdAt,value
2022-08-27T00:01:17.095Z,95471.00
2022-08-27T00:05:21.379Z,95485.00
2022-08-27T00:09:27.014Z,95487.00
2022-08-27T00:13:30.365Z,95479.00
2022-08-27T00:17:33.471Z,95488.00
2022-08-27T00:21:36.307Z,95505.00
2022-08-27T00:25:40.423Z,95505.00
2022-08-27T00:29:43.268Z,95500.00
2022-08-27T00:33:46.388Z,95503.00
2022-08-27T00:37:50.178Z,95496.00
2022-08-27T00:41:54.323Z,95489.00
2022-08-27T00:46:02.857Z,95482.00
2022-08-27T00:50:10.081Z,95484.00
2022-08-27T00:54:16.079Z,95479.00
2022-08-27T00:58:28.679Z,95472.00
2022-08-27T01:02:31.830Z,95476.00
2022-08-27T01:06:37.666Z,95468.00
2022-08-27T01:10:41.942Z,95460.00
2022-08-27T01:14:47.110Z,95461.00
2022-08-27T01:18:50.736Z,95451.00
2022-08-27T01:23:00.479Z,95441.00
2022-08-27T01:27:13.327Z,95450.00
2022-08-27T01:31:16.759Z,95447.00
2022-08-27T01:35:20.366Z,95444.00
2022-08-27T01:39:23.324Z,95450.00
2022-08-27T01:43:28.578Z,95463.00
2022-08-27T01:47:31.512Z,95449.00
2022-08-27T01:51:35.482Z,95458.00
2022-08-27T01:55:39.486Z,95460.00
2022-08-27T01:59:48.523Z,95463.00
2022-08-27T02:03:51.303Z,95451.00
2022-08-27T02:07:54.211Z,95446.00
2022-08-27T02:11:57.319Z,95449.00
2022-08-27T02:16:01.794Z,95445.00
2022-08-27T02:20:05.607Z,95439.00
2022-08-27T02:24:08.577Z,95435.00
2022-08-27T02:28:11.614Z,95434.00
2022-08-27T02:32:17.573Z,95441.00
2022-08-27T02:36:27.179Z,95445.00
2022-08-27T02:40:30.388Z,95437.00
2022-08-27T02:44:35.224Z,95433.00
2022-08-27T02:48:40.221Z,95432.00
2022-08-27T02:52:45.289Z,95434.00
2022-08-27T02:56:49.319Z,95424.00
2022-08-27T03:00:52.303Z,95431.00
2022-08-27T03:04:57.175Z,95428.00
2022-08-27T03:08:59.995Z,95418.00
2022-08-27T03:13:02.775Z,95425.00
2022-08-27T03:17:19.543Z,95415.00
2022-08-27T03:21:25.924Z,95416.00
2022-08-27T03:25:28.943Z,95413.00
2022-08-27T03:29:31.710Z,95421.00
2022-08-27T03:33:39.876Z,95421.00
2022-08-27T03:37:44.108Z,95431.00
2022-08-27T03:41:54.575Z,95431.00
2022-08-27T03:46:01.417Z,95434.00
2022-08-27T03:50:06.434Z,95437.00
2022-08-27T03:54:10.589Z,95436.00
2022-08-27T03:58:14.514Z,95437.00
2022-08-27T04:02:17.327Z,95436.00
2022-08-27T04:06:20.075Z,95435.00
2022-08-27T04:10:24.222Z,95434.00
2022-08-27T04:14:27.707Z,95435.00
2022-08-27T04:18:30.572Z,95439.00
2022-08-27T04:22:33.854Z,95436.00
2022-08-27T04:26:38.032Z,95452.00
2022-08-27T04:30:41.640Z,95462.00
2022-08-27T04:34:44.452Z,95454.00
2022-08-27T04:38:47.378Z,95463.00
2022-08-27T04:42:53.293Z,95458.00
2022-08-27T04:46:57.418Z,95454.00
2022-08-27T04:51:00.209Z,95454.00
2022-08-27T04:55:03.078Z,95452.00
2022-08-27T04:59:09.927Z,95463.00
2022-08-27T05:03:13.297Z,95466.00
2022-08-27T05:07:16.606Z,95463.00
2022-08-27T05:11:20.731Z,95466.00
2022-08-27T05:15:24.879Z,95463.00
2022-08-27T05:19:27.753Z,95471.00
2022-08-27T05:23:30.613Z,95459.00
2022-08-27T05:27:33.379Z,95463.00
2022-08-27T05:31:37.838Z,95451.00
2022-08-27T05:35:42.057Z,95450.00
2022-08-27T05:39:44.817Z,95444.00
2022-08-27T05:43:50.516Z,95442.00
2022-08-27T05:47:54.903Z,95435.00
2022-08-27T05:51:57.741Z,95443.00
2022-08-27T05:56:00.573Z,95450.00
2022-08-27T06:00:21.372Z,95448.00
2022-08-27T06:04:26.397Z,95450.00
2022-08-27T06:08:29.571Z,95454.00
2022-08-27T06:12:32.343Z,95454.00
2022-08-27T06:16:35.115Z,95453.00
2022-08-27T06:20:39.265Z,95448.00
2022-08-27T06:24:46.207Z,95444.00
2022-08-27T06:28:50.556Z,95444.00
2022-08-27T06:32:53.310Z,95442.00
2022-08-27T06:36:57.739Z,95446.00
2022-08-27T06:41:01.190Z,95451.00
2022-08-27T06:45:04.087Z,95442.00
2022-08-27T06:49:07.277Z,95443.00
2022-08-27T06:53:12.396Z,95448.00
2022-08-27T06:57:15.134Z,95443.00
2022-08-27T07:01:20.120Z,95449.00
2022-08-27T07:05:22.931Z,95441.00
2022-08-27T07:09:27.056Z,95452.00
2022-08-27T07:13:30.485Z,95446.00
2022-08-27T07:17:33.343Z,95458.00
2022-08-27T07:21:37.064Z,95465.00
2022-08-27T07:25:43.243Z,95468.00
2022-08-27T07:29:46.037Z,95470.00
2022-08-27T07:33:52.508Z,95470.00
2022-08-27T07:37:56.031Z,95486.00
2022-08-27T07:42:17.530Z,95494.00
2022-08-27T07:46:21.832Z,95490.00
2022-08-27T07:50:24.730Z,95491.00
2022-08-27T07:54:27.845Z,95490.00
2022-08-27T07:58:32.555Z,95496.00
2022-08-27T08:02:35.482Z,95496.00
2022-08-27T08:06:39.603Z,95499.00
2022-08-27T08:10:43.429Z,95498.00
2022-08-27T08:14:49.109Z,95502.00
2022-08-27T08:18:51.931Z,95509.00
2022-08-27T08:22:54.685Z,95509.00
2022-08-27T08:26:57.456Z,95510.00
2022-08-27T08:31:01.892Z,95513.00
2022-08-27T08:35:06.095Z,95510.00
2022-08-27T08:39:08.871Z,95509.00
2022-08-27T08:43:25.166Z,95513.00
2022-08-27T08:47:33.062Z,95515.00
2022-08-27T08:51:40.482Z,95507.00
2022-08-27T08:55:48.707Z,95508.00
2022-08-27T09:00:02.278Z,95507.00
2022-08-27T09:04:11.457Z,95507.00
2022-08-27T09:08:33.379Z,95506.00
2022-08-27T09:12:37.254Z,95501.00
2022-08-27T09:16:40.150Z,95509.00
2022-08-27T09:20:49.381Z,95505.00
2022-08-27T09:25:05.351Z,95511.00
2022-08-27T09:29:19.123Z,95513.00
2022-08-27T09:33:22.983Z,95512.00
2022-08-27T09:37:34.630Z,95518.00
2022-08-27T09:41:45.013Z,95515.00
2022-08-27T09:45:49.336Z,95512.00
2022-08-27T09:50:06.965Z,95503.00
2022-08-27T09:54:12.896Z,95500.00
2022-08-27T09:58:21.415Z,95490.00
2022-08-27T10:02:26.298Z,95485.00
2022-08-27T10:06:30.517Z,95465.00
2022-08-27T10:10:53.431Z,95448.00
2022-08-27T10:15:00.003Z,95475.00
2022-08-27T10:19:17.593Z,95462.00
2022-08-27T10:23:28.106Z,95463.00
2022-08-27T10:27:41.247Z,95469.00
2022-08-27T10:32:00.418Z,95478.00
2022-08-27T10:36:11.092Z,95472.00
2022-08-27T10:40:19.362Z,95485.00
2022-08-27T10:44:39.645Z,95487.00
2022-08-27T10:48:51.771Z,95482.00
2022-08-27T10:53:00.986Z,95486.00
2022-08-27T10:57:31.412Z,95478.00
2022-08-27T11:01:41.357Z,95473.00
2022-08-27T11:05:46.777Z,95470.00
2022-08-27T11:09:57.038Z,95471.00
2022-08-27T11:14:00.951Z,95463.00
2022-08-27T11:18:16.074Z,95472.00
2022-08-27T11:22:26.060Z,95458.00
2022-08-27T11:26:31.562Z,95433.00
2022-08-27T11:30:44.956Z,95435.00
2022-08-27T11:34:52.756Z,95434.00
2022-08-27T11:38:58.869Z,95460.00
2022-08-27T11:43:02.982Z,95430.00
2022-08-27T11:47:13.488Z,95428.00
2022-08-27T11:51:32.879Z,95427.00
2022-08-27T11:55:38.081Z,95423.00
2022-08-27T11:59:41.753Z,95418.00
2022-08-27T12:03:44.631Z,95402.00
2022-08-27T12:07:53.751Z,95396.00
2022-08-27T12:12:07.627Z,95386.00
2022-08-27T12:16:25.217Z,95389.00
2022-08-27T12:20:37.736Z,95387.00
2022-08-27T12:24:50.244Z,95381.00
2022-08-27T12:29:17.293Z,95391.00
2022-08-27T12:33:24.946Z,95383.00
2022-08-27T12:37:30.861Z,95388.00
2022-08-27T12:41:43.798Z,95398.00
2022-08-27T12:45:48.625Z,95405.00
2022-08-27T12:49:56.321Z,95397.00
2022-08-27T12:54:06.522Z,95404.00
2022-08-27T12:58:19.733Z,95411.00
2022-08-27T13:02:41.666Z,95413.00
2022-08-27T13:06:46.456Z,95411.00
2022-08-27T13:10:50.202Z,95414.00
2022-08-27T13:14:57.198Z,95415.00
2022-08-27T13:19:00.216Z,95420.00
2022-08-27T13:23:04.374Z,95417.00
2022-08-27T13:27:07.445Z,95411.00
2022-08-27T13:31:12.065Z,95408.00
2022-08-27T13:35:15.634Z,95425.00
2022-08-27T13:39:22.182Z,95443.00
2022-08-27T13:43:33.127Z,95458.00
2022-08-27T13:47:46.314Z,95467.00
2022-08-27T13:51:49.879Z,95469.00
2022-08-27T13:55:54.458Z,95476.00
2022-08-27T13:59:57.559Z,95475.00
2022-08-27T14:04:06.555Z,95475.00
2022-08-27T14:08:13.589Z,95471.00
2022-08-27T14:12:28.987Z,95454.00
2022-08-27T14:16:36.826Z,95447.00
2022-08-27T14:20:40.993Z,95435.00
2022-08-27T14:24:43.765Z,95435.00
2022-08-27T14:28:46.649Z,95428.00
2022-08-27T14:32:50.303Z,95435.00
2022-08-27T14:37:00.561Z,95423.00
2022-08-27T14:41:03.562Z,95436.00
2022-08-27T14:45:10.377Z,95432.00
2022-08-27T14:49:17.345Z,95438.00
2022-08-27T14:53:21.549Z,95436.00
2022-08-27T14:57:24.302Z,95434.00
2022-08-27T15:01:27.775Z,95419.00
2022-08-27T15:05:30.633Z,95423.00
2022-08-27T15:09:35.930Z,95419.00
2022-08-27T15:13:38.669Z,95414.00
2022-08-27T15:17:41.902Z,95421.00
2022-08-27T15:21:47.323Z,95416.00
2022-08-27T15:25:51.449Z,95424.00
2022-08-27T15:29:54.439Z,95420.00
2022-08-27T15:33:57.217Z,95424.00
2022-08-27T15:38:00.254Z,95425.00
2022-08-27T15:42:07.024Z,95418.00
2022-08-27T15:46:10.482Z,95431.00
2022-08-27T15:50:13.466Z,95429.00
2022-08-27T15:54:16.387Z,95434.00
2022-08-27T15:58:20.506Z,95434.00
2022-08-27T16:02:25.349Z,95435.00
2022-08-27T16:06:28.872Z,95431.00
2022-08-27T16:10:31.866Z,95439.00
2022-08-27T16:14:36.057Z,95454.00
2022-08-27T16:18:41.268Z,95443.00
2022-08-27T16:22:45.397Z,95437.00
2022-08-27T16:26:48.518Z,95437.00
2022-08-27T16:30:55.413Z,95431.00
2022-08-27T16:34:58.375Z,95435.00
2022-08-27T16:39:01.286Z,95440.00
2022-08-27T16:43:04.100Z,95443.00
2022-08-27T16:47:08.346Z,95438.00
2022-08-27T16:51:15.426Z,95449.00
2022-08-27T16:55:19.342Z,95454.00
2022-08-27T16:59:22.089Z,95459.00
2022-08-27T17:03:26.827Z,95459.00
2022-08-27T17:07:29.561Z,95465.00
2022-08-27T17:11:36.549Z,95469.00
2022-08-27T17:15:39.593Z,95473.00
2022-08-27T17:19:43.828Z,95475.00
2022-08-27T17:23:48.613Z,95473.00
2022-08-27T17:27:51.384Z,95478.00
2022-08-27T17:31:54.419Z,95481.00
2022-08-27T17:35:58.900Z,95478.00
2022-08-27T17:40:01.922Z,95471.00
2022-08-27T17:44:08.360Z,95475.00
2022-08-27T17:48:14.084Z,95481.00
2022-08-27T17:52:22.794Z,95492.00
2022-08-27T17:56:25.711Z,95484.00
2022-08-27T18:00:28.547Z,95483.00
2022-08-27T18:04:31.435Z,95486.00
2022-08-27T18:08:35.553Z,95485.00
2022-08-27T18:12:38.567Z,95491.00
2022-08-27T18:16:41.452Z,95511.00
2022-08-27T18:20:44.373Z,95509.00
2022-08-27T18:24:49.010Z,95528.00
2022-08-27T18:28:51.817Z,95527.00
2022-08-27T18:32:55.034Z,95529.00
2022-08-27T18:36:57.831Z,95537.00
2022-08-27T18:41:03.086Z,95535.00
2022-08-27T18:45:08.090Z,95540.00
2022-08-27T18:49:11.746Z,95540.00
2022-08-27T18:53:17.231Z,95547.00
2022-08-27T18:57:21.344Z,95551.00
2022-08-27T19:01:27.342Z,95549.00
2022-08-27T19:05:30.442Z,95549.00
2022-08-27T19:09:33.751Z,95561.00
2022-08-27T19:13:38.098Z,95557.00
2022-08-27T19:17:44.453Z,95560.00
2022-08-27T19:21:51.351Z,95560.00
2022-08-27T19:25:55.244Z,95558.00
2022-08-27T19:29:59.395Z,95564.00
2022-08-27T19:34:04.749Z,95564.00
2022-08-27T19:38:08.801Z,95566.00
2022-08-27T19:42:12.003Z,95572.00
2022-08-27T19:46:18.798Z,95573.00
2022-08-27T19:50:23.834Z,95581.00
2022-08-27T19:54:26.590Z,95585.00
2022-08-27T19:58:36.390Z,95586.00
2022-08-27T20:02:40.849Z,95578.00
2022-08-27T20:06:43.693Z,95579.00
2022-08-27T20:10:46.483Z,95578.00
2022-08-27T20:14:51.662Z,95577.00
2022-08-27T20:19:00.080Z,95570.00
2022-08-27T20:23:05.251Z,95575.00
2022-08-27T20:27:08.045Z,95584.00
2022-08-27T20:31:10.955Z,95593.00
2022-08-27T20:35:16.119Z,95580.00
2022-08-27T20:39:19.429Z,95584.00
2022-08-27T20:43:23.901Z,95584.00
2022-08-27T20:47:28.978Z,95591.00
2022-08-27T20:51:51.223Z,95598.00
2022-08-27T20:55:56.778Z,95599.00
2022-08-27T21:00:16.798Z,95606.00
2022-08-27T21:04:19.582Z,95603.00
2022-08-27T21:08:23.686Z,95602.00
2022-08-27T21:12:27.061Z,95605.00
2022-08-27T21:16:29.859Z,95613.00
2022-08-27T21:20:33.150Z,95624.00
2022-08-27T21:24:37.357Z,95623.00
2022-08-27T21:28:42.485Z,95619.00
2022-08-27T21:32:45.281Z,95622.00
2022-08-27T21:36:48.030Z,95620.00
2022-08-27T21:40:52.170Z,95616.00
2022-08-27T21:44:54.923Z,95614.00
2022-08-27T21:48:58.768Z,95626.00
2022-08-27T21:53:01.983Z,95636.00
2022-08-27T21:57:07.028Z,95631.00
2022-08-27T22:01:09.964Z,95622.00
2022-08-27T22:05:12.814Z,95626.00
2022-08-27T22:09:15.625Z,95617.00
2022-08-27T22:13:20.314Z,95621.00
2022-08-27T22:17:23.038Z,95624.00
2022-08-27T22:21:26.318Z,95620.00
2022-08-27T22:25:29.690Z,95625.00
2022-08-27T22:29:33.836Z,95621.00
2022-08-27T22:33:36.654Z,95633.00
2022-08-27T22:37:39.539Z,95625.00
2022-08-27T22:41:43.921Z,95625.00
2022-08-27T22:45:52.579Z,95621.00
2022-08-27T22:49:57.719Z,95616.00
2022-08-27T22:54:00.609Z,95606.00
2022-08-27T22:58:03.667Z,95602.00
2022-08-27T23:02:09.318Z,95598.00
2022-08-27T23:06:12.194Z,95600.00
2022-08-27T23:10:18.079Z,95604.00
2022-08-27T23:14:20.910Z,95618.00
2022-08-27T23:18:25.114Z,95614.00
2022-08-27T23:22:27.868Z,95614.00
2022-08-27T23:26:56.540Z,95603.00
2022-08-27T23:31:00.071Z,95595.00
2022-08-27T23:35:05.507Z,95597.00
2022-08-27T23:39:09.255Z,95593.00
2022-08-27T23:43:12.500Z,95594.00
2022-08-27T23:47:15.590Z,95595.00
2022-08-27T23:51:19.713Z,95595.00
2022-08-27T23:55:22.457Z,95586.00
2022-08-27T23:59:28.751Z,95586.00
